createdAt,value
2019-03-09T00:00:47.051Z,55.64
2019-03-09T00:03:12.906Z,55.58
2019-03-09T00:05:38.894Z,56.20
2019-03-09T00:08:04.834Z,56.34
2019-03-09T00:10:30.783Z,56.50
2019-03-09T00:12:56.702Z,56.31
2019-03-09T00:15:23.263Z,56.64
2019-03-09T00:17:49.181Z,56.69
2019-03-09T00:20:15.126Z,56.80
2019-03-09T00:22:42.932Z,56.72
2019-03-09T00:25:10.794Z,56.94
2019-03-09T00:27:38.636Z,57.13
2019-03-09T00:32:59.168Z,57.76
2019-03-09T00:35:25.100Z,58.21
2019-03-09T00:37:51.074Z,58.47
2019-03-09T00:40:17.205Z,58.50
2019-03-09T00:42:43.158Z,58.51
2019-03-09T00:45:09.165Z,58.57
2019-03-09T00:47:35.095Z,58.76
2019-03-09T00:50:01.005Z,58.96
2019-03-09T00:52:26.966Z,59.27
2019-03-09T00:54:52.994Z,59.30
2019-03-09T00:57:19.234Z,58.99
2019-03-09T00:59:45.167Z,58.85
2019-03-09T01:02:11.098Z,58.96
2019-03-09T01:04:37.018Z,59.42
2019-03-09T01:07:03.050Z,59.57
2019-03-09T01:09:29.003Z,59.91
2019-03-09T01:11:55.021Z,59.99
2019-03-09T01:14:20.949Z,59.98
2019-03-09T01:16:46.997Z,60.34
2019-03-09T01:19:12.965Z,60.33
2019-03-09T01:21:38.883Z,60.27
2019-03-09T01:24:04.816Z,59.95
2019-03-09T01:26:30.729Z,59.84
2019-03-09T01:28:56.662Z,60.07
2019-03-09T01:31:22.571Z,60.03
2019-03-09T01:33:48.500Z,60.30
2019-03-09T01:36:14.451Z,61.08
2019-03-09T01:38:40.380Z,60.84
2019-03-09T01:41:06.312Z,60.81
2019-03-09T01:43:32.350Z,60.80
2019-03-09T01:45:58.291Z,60.80
2019-03-09T01:48:24.210Z,60.77
2019-03-09T01:50:50.219Z,60.86
2019-03-09T01:53:16.151Z,60.63
2019-03-09T01:55:42.060Z,60.83
2019-03-09T01:58:08.090Z,60.74
2019-03-09T02:00:34.031Z,60.97
2019-03-09T02:02:59.963Z,61.36
2019-03-09T02:05:27.273Z,61.23
2019-03-09T02:07:53.213Z,61.22
2019-03-09T02:10:23.157Z,61.21
2019-03-09T02:12:49.099Z,61.28
2019-03-09T02:15:15.242Z,61.23
2019-03-09T02:17:41.172Z,61.15
2019-03-09T02:20:33.797Z,61.22
2019-03-09T02:22:59.718Z,61.12
2019-03-09T02:25:25.646Z,61.21
2019-03-09T02:27:51.581Z,61.10
2019-03-09T02:30:17.993Z,61.18
2019-03-09T02:32:43.979Z,61.21
2019-03-09T02:35:11.627Z,61.26
2019-03-09T02:37:37.549Z,61.22
2019-03-09T02:43:05.540Z,61.21
2019-03-09T02:45:32.267Z,61.38
2019-03-09T02:47:58.256Z,61.57
2019-03-09T02:50:24.241Z,61.76
2019-03-09T02:52:50.187Z,61.93
2019-03-09T02:55:16.121Z,62.13
2019-03-09T02:57:42.080Z,62.07
2019-03-09T03:00:11.845Z,62.05
2019-03-09T03:02:41.020Z,62.13
2019-03-09T03:05:06.902Z,62.19
2019-03-09T03:07:32.842Z,62.21
2019-03-09T03:09:58.776Z,62.29
2019-03-09T03:12:24.734Z,62.35
2019-03-09T03:14:50.659Z,62.35
2019-03-09T03:17:16.580Z,62.66
2019-03-09T03:19:42.519Z,62.53
2019-03-09T03:22:08.540Z,62.53
2019-03-09T03:24:35.675Z,62.87
2019-03-09T03:27:01.600Z,63.10
2019-03-09T03:29:27.537Z,63.29
2019-03-09T03:31:53.467Z,63.34
2019-03-09T03:34:19.462Z,63.35
2019-03-09T03:36:45.421Z,63.25
2019-03-09T03:39:11.337Z,63.14
2019-03-09T03:41:37.509Z,63.26
2019-03-09T03:44:04.764Z,63.73
2019-03-09T03:46:30.813Z,63.61
2019-03-09T03:48:56.741Z,64.15
2019-03-09T03:51:22.671Z,64.21
2019-03-09T03:53:48.579Z,63.94
2019-03-09T03:56:14.502Z,63.75
2019-03-09T03:58:40.420Z,63.79
2019-03-09T04:01:06.364Z,63.82
2019-03-09T04:03:32.287Z,64.75
2019-03-09T04:05:58.188Z,65.29
2019-03-09T04:08:24.136Z,65.46
2019-03-09T04:10:50.151Z,65.33
2019-03-09T04:13:16.066Z,65.01
2019-03-09T04:15:42.310Z,64.88
2019-03-09T04:18:08.224Z,64.86
2019-03-09T04:20:34.154Z,64.88
2019-03-09T04:23:00.081Z,64.73
2019-03-09T04:25:26.108Z,64.60
2019-03-09T04:27:52.029Z,64.60
2019-03-09T04:30:18.061Z,64.72
2019-03-09T04:32:43.951Z,64.82
2019-03-09T04:35:09.866Z,64.70
2019-03-09T04:37:35.927Z,64.73
2019-03-09T04:40:04.546Z,64.57
2019-03-09T04:42:30.507Z,64.77
2019-03-09T04:44:56.457Z,64.83
2019-03-09T04:47:22.416Z,64.61
2019-03-09T04:49:48.328Z,64.54
2019-03-09T04:52:14.274Z,64.45
2019-03-09T04:54:40.325Z,64.53
2019-03-09T04:57:06.263Z,64.88
2019-03-09T04:59:32.227Z,65.38
2019-03-09T05:01:58.247Z,65.46
2019-03-09T05:04:27.974Z,65.16
2019-03-09T05:06:53.981Z,65.09
2019-03-09T05:09:23.727Z,64.91
2019-03-09T05:11:49.663Z,64.92
2019-03-09T05:14:15.572Z,65.17
2019-03-09T05:16:41.529Z,65.27
2019-03-09T05:19:07.470Z,65.38
2019-03-09T05:21:33.443Z,65.51
2019-03-09T05:23:59.358Z,65.40
2019-03-09T05:26:25.317Z,65.79
2019-03-09T05:28:51.248Z,66.28
2019-03-09T05:31:17.173Z,66.31
2019-03-09T05:33:43.119Z,66.50
2019-03-09T05:36:09.065Z,66.73
2019-03-09T05:38:35.090Z,66.39
2019-03-09T05:41:04.624Z,66.71
2019-03-09T05:43:30.608Z,66.87
2019-03-09T05:45:56.626Z,66.96
2019-03-09T05:48:22.544Z,66.90
2019-03-09T05:50:48.481Z,66.99
2019-03-09T05:53:16.698Z,67.04
2019-03-09T05:55:42.741Z,67.11
2019-03-09T05:58:08.805Z,67.04
2019-03-09T06:00:35.622Z,66.96
2019-03-09T06:03:01.553Z,67.03
2019-03-09T06:05:55.535Z,67.25
2019-03-09T06:08:21.448Z,67.43
2019-03-09T06:10:47.375Z,67.57
2019-03-09T06:13:13.299Z,67.35
2019-03-09T06:15:39.235Z,67.37
2019-03-09T06:18:06.428Z,67.47
2019-03-09T06:20:32.635Z,67.46
2019-03-09T06:22:58.548Z,67.49
2019-03-09T06:25:24.503Z,69.20
2019-03-09T06:27:50.419Z,68.61
2019-03-09T06:30:16.495Z,68.83
2019-03-09T06:32:46.269Z,68.92
2019-03-09T06:35:40.055Z,69.03
2019-03-09T06:38:30.576Z,68.98
2019-03-09T06:41:02.968Z,68.83
2019-03-09T06:43:24.424Z,69.21
2019-03-09T06:45:50.346Z,69.15
2019-03-09T06:48:16.284Z,69.11
2019-03-09T06:50:42.317Z,68.95
2019-03-09T06:53:08.245Z,69.03
2019-03-09T06:55:34.172Z,68.96
2019-03-09T06:58:00.204Z,69.07
2019-03-09T07:00:31.292Z,68.95
2019-03-09T07:02:57.244Z,68.96
2019-03-09T07:05:23.183Z,68.99
2019-03-09T07:07:49.096Z,68.89
2019-03-09T07:10:15.053Z,69.01
2019-03-09T07:12:41.081Z,69.92
2019-03-09T07:15:41.062Z,69.52
2019-03-09T07:18:15.044Z,69.57
2019-03-09T07:20:41.077Z,69.39
2019-03-09T07:23:07.019Z,69.57
2019-03-09T07:25:32.953Z,69.64
2019-03-09T07:28:02.701Z,69.62
2019-03-09T07:30:28.727Z,69.76
2019-03-09T07:32:54.665Z,69.90
2019-03-09T07:35:20.685Z,70.00
2019-03-09T07:37:51.817Z,69.93
2019-03-09T07:40:19.898Z,69.82
2019-03-09T07:42:45.956Z,70.00
2019-03-09T07:45:12.321Z,69.63
2019-03-09T07:47:38.263Z,69.72
2019-03-09T07:50:10.595Z,69.64
2019-03-09T07:52:39.867Z,69.82
2019-03-09T07:55:07.375Z,69.68
2019-03-09T07:57:33.555Z,69.55
2019-03-09T07:59:59.538Z,69.23
2019-03-09T08:02:25.764Z,69.43
2019-03-09T08:04:51.786Z,69.34
2019-03-09T08:07:17.748Z,69.56
2019-03-09T08:09:43.773Z,69.61
2019-03-09T08:12:09.816Z,69.58
2019-03-09T08:14:38.055Z,69.59
2019-03-09T08:17:04.027Z,69.55
2019-03-09T08:19:29.943Z,69.48
2019-03-09T08:21:55.876Z,69.36
2019-03-09T08:24:21.801Z,68.83
2019-03-09T08:26:48.400Z,68.67
2019-03-09T08:29:14.462Z,67.98
2019-03-09T08:31:40.781Z,67.73
2019-03-09T08:34:07.102Z,67.37
2019-03-09T08:36:34.969Z,67.40
2019-03-09T08:39:01.127Z,66.95
2019-03-09T08:41:27.062Z,66.54
2019-03-09T08:43:52.970Z,66.48
2019-03-09T08:46:18.957Z,66.03
2019-03-09T08:48:44.879Z,66.35
2019-03-09T08:51:10.823Z,66.48
2019-03-09T08:53:36.765Z,66.60
2019-03-09T08:56:03.227Z,66.12
2019-03-09T08:58:29.124Z,65.11
2019-03-09T09:00:55.070Z,64.56
2019-03-09T09:03:20.988Z,64.64
2019-03-09T09:05:46.908Z,64.23
2019-03-09T09:08:12.833Z,63.97
2019-03-09T09:10:38.747Z,63.98
2019-03-09T09:13:04.737Z,63.09
2019-03-09T09:15:30.716Z,60.43
2019-03-09T09:17:56.802Z,60.48
2019-03-09T09:20:47.227Z,59.39
2019-03-09T09:23:14.497Z,58.27
2019-03-09T09:25:40.393Z,55.86
2019-03-09T09:28:06.320Z,55.49
2019-03-09T09:30:32.237Z,56.39
2019-03-09T09:32:58.146Z,56.44
2019-03-09T09:35:24.104Z,56.04
2019-03-09T09:37:50.953Z,54.69
2019-03-09T09:40:23.005Z,54.69
2019-03-09T09:42:49.024Z,54.18
2019-03-09T09:45:15.073Z,53.54
2019-03-09T09:47:42.617Z,51.06
2019-03-09T09:50:10.511Z,50.72
2019-03-09T09:52:36.428Z,49.88
2019-03-09T09:55:03.410Z,50.25
2019-03-09T09:57:29.624Z,49.38
2019-03-09T09:59:55.571Z,49.31
2019-03-09T10:02:21.512Z,48.98
2019-03-09T10:04:47.415Z,49.35
2019-03-09T10:07:13.364Z,47.98
2019-03-09T10:09:39.288Z,46.23
2019-03-09T10:12:05.214Z,45.61
2019-03-09T10:14:31.136Z,43.80
2019-03-09T10:16:57.053Z,44.57
2019-03-09T10:19:23.029Z,44.32
2019-03-09T10:21:48.971Z,44.20
2019-03-09T10:24:14.899Z,43.07
2019-03-09T10:26:45.275Z,41.08
2019-03-09T10:29:08.756Z,42.10
2019-03-09T10:31:34.692Z,42.44
2019-03-09T10:34:00.614Z,42.27
2019-03-09T10:36:26.555Z,39.22
2019-03-09T10:38:52.678Z,39.12
2019-03-09T10:41:18.866Z,39.70
2019-03-09T10:43:47.208Z,39.81
2019-03-09T10:46:13.182Z,39.72
2019-03-09T10:48:39.321Z,37.36
2019-03-09T10:51:05.470Z,38.63
2019-03-09T10:53:31.425Z,38.70
2019-03-09T10:55:58.226Z,38.96
2019-03-09T10:58:24.446Z,36.87
2019-03-09T11:00:50.700Z,37.04
2019-03-09T11:03:19.683Z,37.54
2019-03-09T11:05:45.895Z,38.15
2019-03-09T11:08:12.134Z,38.31
2019-03-09T11:10:40.534Z,38.95
2019-03-09T11:13:06.699Z,38.12
2019-03-09T11:15:34.854Z,37.25
2019-03-09T11:18:01.144Z,37.60
2019-03-09T11:20:27.386Z,37.07
2019-03-09T11:22:53.532Z,38.22
2019-03-09T11:25:19.658Z,36.80
2019-03-09T11:27:45.932Z,37.39
2019-03-09T11:30:20.450Z,37.89
2019-03-09T11:32:51.877Z,38.42
2019-03-09T11:35:18.053Z,38.36
2019-03-09T11:37:44.213Z,39.05
2019-03-09T11:40:10.455Z,38.96
2019-03-09T11:42:36.631Z,39.53
2019-03-09T11:45:10.626Z,39.79
2019-03-09T11:47:36.149Z,39.90
2019-03-09T11:50:04.031Z,39.28
2019-03-09T11:52:30.099Z,39.36
2019-03-09T11:54:56.231Z,39.41
2019-03-09T11:57:22.499Z,39.36
2019-03-09T11:59:48.671Z,39.77
2019-03-09T12:02:14.952Z,39.88
2019-03-09T12:04:46.787Z,40.07
2019-03-09T12:07:09.130Z,40.33
2019-03-09T12:09:35.408Z,40.34
2019-03-09T12:12:02.825Z,40.13
2019-03-09T12:14:29.087Z,39.91
2019-03-09T12:16:55.294Z,40.34
2019-03-09T12:19:21.566Z,40.03
2019-03-09T12:21:47.887Z,40.22
2019-03-09T12:24:17.630Z,40.68
2019-03-09T12:26:42.331Z,40.81
2019-03-09T12:29:08.488Z,41.03
2019-03-09T12:31:35.791Z,40.69
2019-03-09T12:34:02.041Z,41.00
2019-03-09T12:36:28.108Z,40.77
2019-03-09T12:38:54.296Z,41.28
2019-03-09T12:41:20.528Z,41.24
2019-03-09T12:43:46.923Z,41.43
2019-03-09T12:46:13.138Z,41.32
2019-03-09T12:48:39.378Z,41.63
2019-03-09T12:51:05.609Z,41.44
2019-03-09T12:53:33.282Z,41.36
2019-03-09T12:55:59.333Z,41.21
2019-03-09T12:58:25.610Z,41.54
2019-03-09T13:00:51.752Z,41.36
2019-03-09T13:03:17.903Z,41.65
2019-03-09T13:05:46.559Z,41.97
2019-03-09T13:08:12.045Z,42.20
2019-03-09T13:10:38.271Z,42.39
2019-03-09T13:13:04.413Z,42.50
2019-03-09T13:15:30.575Z,43.06
2019-03-09T13:17:56.590Z,43.90
2019-03-09T13:20:25.982Z,45.32
2019-03-09T13:22:52.053Z,46.45
2019-03-09T13:25:18.328Z,47.49
2019-03-09T13:27:44.577Z,48.13
2019-03-09T13:30:19.852Z,49.31
2019-03-09T13:32:45.900Z,50.34
2019-03-09T13:35:13.565Z,50.97
2019-03-09T13:37:39.920Z,51.12
2019-03-09T13:40:07.897Z,52.02
2019-03-09T13:42:34.164Z,51.87
2019-03-09T13:45:00.369Z,52.45
2019-03-09T13:47:26.486Z,52.26
2019-03-09T13:49:53.945Z,53.02
2019-03-09T13:52:20.138Z,52.34
2019-03-09T13:54:46.367Z,51.98
2019-03-09T13:57:12.286Z,51.79
2019-03-09T13:59:38.503Z,52.22
2019-03-09T14:02:04.536Z,52.09
2019-03-09T14:04:30.722Z,51.98
2019-03-09T14:06:56.677Z,51.99
2019-03-09T14:09:22.665Z,52.02
2019-03-09T14:11:48.970Z,52.01
2019-03-09T14:14:15.011Z,52.03
2019-03-09T14:16:41.028Z,51.86
2019-03-09T14:19:07.274Z,52.55
2019-03-09T14:21:33.211Z,52.85
2019-03-09T14:23:59.320Z,53.06
2019-03-09T14:26:25.456Z,52.98
2019-03-09T14:28:51.606Z,53.37
2019-03-09T14:31:17.760Z,53.27
2019-03-09T14:33:43.935Z,53.68
2019-03-09T14:36:10.625Z,53.54
2019-03-09T14:38:36.658Z,53.38
2019-03-09T14:41:02.831Z,53.23
2019-03-09T14:43:28.976Z,53.69
2019-03-09T14:45:55.297Z,53.34
2019-03-09T14:48:21.295Z,53.15
2019-03-09T14:50:49.359Z,53.01
2019-03-09T14:53:15.280Z,53.81
2019-03-09T14:55:41.778Z,53.04
2019-03-09T14:58:07.721Z,52.73
2019-03-09T15:00:33.739Z,52.54
2019-03-09T15:02:59.998Z,52.42
2019-03-09T15:05:26.251Z,52.46
2019-03-09T15:07:54.210Z,52.78
2019-03-09T15:10:22.068Z,52.51
2019-03-09T15:12:48.195Z,52.58
2019-03-09T15:15:18.092Z,52.47
2019-03-09T15:17:44.173Z,52.48
2019-03-09T15:20:11.743Z,52.59
2019-03-09T15:22:37.889Z,52.74
2019-03-09T15:25:06.499Z,52.39
2019-03-09T15:27:34.297Z,52.19
2019-03-09T15:30:00.547Z,52.32
2019-03-09T15:32:26.474Z,52.35
2019-03-09T15:34:52.518Z,52.13
2019-03-09T15:37:18.575Z,52.51
2019-03-09T15:39:44.501Z,52.68
2019-03-09T15:42:10.609Z,52.45
2019-03-09T15:44:36.638Z,52.38
2019-03-09T15:47:02.559Z,52.39
2019-03-09T15:49:28.613Z,52.51
2019-03-09T15:51:54.546Z,52.34
2019-03-09T15:54:20.512Z,52.18
2019-03-09T15:56:46.451Z,52.00
2019-03-09T15:59:12.653Z,52.08
2019-03-09T16:01:38.571Z,52.11
2019-03-09T16:04:04.836Z,52.17
2019-03-09T16:06:30.780Z,52.06
2019-03-09T16:08:56.700Z,52.08
2019-03-09T16:11:22.756Z,52.18
2019-03-09T16:13:48.671Z,52.64
2019-03-09T16:16:14.684Z,52.66
2019-03-09T16:18:40.640Z,52.82
2019-03-09T16:21:06.618Z,53.19
2019-03-09T16:23:32.664Z,53.31
2019-03-09T16:25:58.738Z,53.30
2019-03-09T16:28:24.888Z,53.55
2019-03-09T16:30:50.870Z,53.66
2019-03-09T16:33:17.022Z,53.71
2019-03-09T16:35:43.230Z,53.80
2019-03-09T16:38:09.522Z,54.01
2019-03-09T16:40:40.401Z,54.01
2019-03-09T16:43:04.789Z,54.14
2019-03-09T16:45:30.962Z,54.45
2019-03-09T16:47:57.202Z,54.78
2019-03-09T16:50:23.333Z,54.94
2019-03-09T16:52:49.593Z,54.91
2019-03-09T16:55:15.981Z,54.81
2019-03-09T16:57:42.225Z,54.89
2019-03-09T17:00:35.862Z,54.84
2019-03-09T17:03:02.158Z,54.94
2019-03-09T17:05:28.290Z,55.38
2019-03-09T17:07:54.471Z,55.57
2019-03-09T17:10:20.577Z,55.57
2019-03-09T17:12:46.877Z,55.44
2019-03-09T17:26:26.514Z,55.44
2019-03-09T17:28:52.561Z,55.54
2019-03-09T17:31:18.614Z,55.47
2019-03-09T17:33:44.550Z,55.93
2019-03-09T17:36:10.624Z,56.05
2019-03-09T17:38:36.942Z,56.01
2019-03-09T17:41:03.379Z,55.88
2019-03-09T17:43:29.341Z,55.67
2019-03-09T17:45:55.474Z,55.74
2019-03-09T17:48:22.586Z,56.07
2019-03-09T17:50:48.757Z,56.17
2019-03-09T17:53:16.190Z,56.22
2019-03-09T17:55:42.274Z,56.36
2019-03-09T17:58:10.581Z,56.26
2019-03-09T18:00:44.574Z,56.35
2019-03-09T18:03:10.837Z,56.64
2019-03-09T18:05:37.156Z,56.59
2019-03-09T18:08:03.263Z,56.69
2019-03-09T18:10:50.077Z,56.72
2019-03-09T18:13:16.134Z,56.88
2019-03-09T18:15:42.438Z,57.22
2019-03-09T18:18:08.743Z,57.51
2019-03-09T18:20:34.959Z,57.82
2019-03-09T18:23:01.134Z,58.03
2019-03-09T18:25:27.374Z,57.87
2019-03-09T18:27:53.660Z,58.12
2019-03-09T18:30:19.605Z,58.33
2019-03-09T18:32:45.752Z,58.45
2019-03-09T18:35:11.716Z,58.59
2019-03-09T18:37:37.638Z,58.33
2019-03-09T18:40:09.368Z,58.53
2019-03-09T18:42:35.478Z,58.51
2019-03-09T18:45:01.450Z,58.27
2019-03-09T18:47:27.770Z,58.42
2019-03-09T18:49:54.136Z,58.55
2019-03-09T18:52:20.429Z,58.75
2019-03-09T18:54:46.731Z,58.86
2019-03-09T18:57:14.334Z,58.83
2019-03-09T18:59:40.626Z,59.13
2019-03-09T19:02:06.559Z,58.96
2019-03-09T19:04:32.781Z,59.29
2019-03-09T19:06:58.918Z,59.71
2019-03-09T19:09:24.977Z,59.79
2019-03-09T19:11:51.184Z,59.90
2019-03-09T19:14:17.321Z,59.97
2019-03-09T19:16:43.478Z,60.13
2019-03-09T19:19:09.759Z,60.25
2019-03-09T19:21:35.923Z,61.04
2019-03-09T19:24:02.151Z,60.97
2019-03-09T19:26:28.348Z,60.99
2019-03-09T19:28:54.512Z,61.23
2019-03-09T19:31:20.670Z,61.52
2019-03-09T19:33:46.914Z,61.68
2019-03-09T19:36:12.874Z,61.67
2019-03-09T19:38:40.039Z,62.30
2019-03-09T19:41:06.233Z,62.08
2019-03-09T19:43:32.536Z,61.98
2019-03-09T19:45:58.714Z,61.84
2019-03-09T19:48:26.039Z,61.75
2019-03-09T19:50:55.131Z,61.67
2019-03-09T19:53:21.287Z,61.71
2019-03-09T19:55:50.345Z,62.25
2019-03-09T19:58:17.515Z,62.73
2019-03-09T20:00:58.044Z,62.60
2019-03-09T20:03:23.996Z,62.70
2019-03-09T20:05:53.532Z,63.00
2019-03-09T20:08:19.484Z,62.83
2019-03-09T20:10:45.624Z,63.35
2019-03-09T20:13:11.644Z,63.23
2019-03-09T20:15:38.879Z,63.01
2019-03-09T20:18:04.839Z,62.89
2019-03-09T20:20:30.975Z,62.89
2019-03-09T20:22:56.935Z,62.90
2019-03-09T20:25:22.953Z,62.88
2019-03-09T20:27:48.986Z,62.99
2019-03-09T20:30:16.553Z,63.28
2019-03-09T20:32:42.613Z,63.41
2019-03-09T20:35:08.634Z,63.49
2019-03-09T20:37:34.701Z,63.80
2019-03-09T20:40:00.792Z,63.91
2019-03-09T20:42:26.979Z,64.13
2019-03-09T20:44:52.929Z,64.32
2019-03-09T20:47:18.909Z,64.39
2019-03-09T20:49:46.983Z,64.47
2019-03-09T20:52:13.164Z,64.50
2019-03-09T20:54:39.134Z,64.76
2019-03-09T20:57:05.218Z,64.72
2019-03-09T20:59:31.247Z,65.01
2019-03-09T21:01:57.222Z,65.26
2019-03-09T21:04:23.392Z,65.31
2019-03-09T21:06:49.325Z,65.37
2019-03-09T21:09:18.522Z,65.39
2019-03-09T21:11:44.582Z,65.78
2019-03-09T21:14:10.868Z,66.34
2019-03-09T21:16:36.839Z,66.07
2019-03-09T21:19:02.753Z,66.19
2019-03-09T21:21:28.964Z,65.76
2019-03-09T21:23:55.111Z,65.40
2019-03-09T21:26:21.180Z,65.92
2019-03-09T21:28:47.133Z,65.57
2019-03-09T21:31:13.209Z,65.40
2019-03-09T21:33:39.561Z,65.30
2019-03-09T21:36:05.500Z,64.92
2019-03-09T21:38:31.446Z,65.50
2019-03-09T21:40:57.361Z,65.48
2019-03-09T21:43:23.344Z,65.12
2019-03-09T21:45:49.371Z,65.02
2019-03-09T21:48:15.523Z,65.03
2019-03-09T21:50:41.600Z,65.05
2019-03-09T21:53:07.627Z,65.93
2019-03-09T21:55:33.564Z,66.13
2019-03-09T21:57:59.591Z,66.04
2019-03-09T22:00:25.558Z,66.41
2019-03-09T22:02:51.571Z,66.48
2019-03-09T22:05:21.898Z,66.69
2019-03-09T22:07:49.623Z,66.31
2019-03-09T22:10:17.953Z,66.75
2019-03-09T22:12:44.013Z,66.76
2019-03-09T22:15:19.337Z,66.99
2019-03-09T22:17:45.348Z,67.03
2019-03-09T22:20:12.293Z,67.53
2019-03-09T22:22:38.232Z,67.55
2019-03-09T22:25:07.278Z,67.81
2019-03-09T22:27:33.341Z,68.29
2019-03-09T22:29:59.544Z,68.53
2019-03-09T22:32:25.627Z,68.54
2019-03-09T22:34:51.554Z,68.52
2019-03-09T22:37:17.792Z,69.07
2019-03-09T22:39:44.096Z,70.27
2019-03-09T22:42:10.194Z,69.68
2019-03-09T22:44:36.371Z,69.17
2019-03-09T22:47:11.092Z,68.76
2019-03-09T22:49:30.401Z,68.57
2019-03-09T22:51:56.447Z,68.46
2019-03-09T22:54:22.457Z,68.25
2019-03-09T22:56:48.440Z,68.40
2019-03-09T22:59:14.622Z,68.24
2019-03-09T23:01:40.737Z,68.69
2019-03-09T23:04:06.921Z,69.12
2019-03-09T23:06:33.066Z,69.18
2019-03-09T23:08:59.221Z,69.49
2019-03-09T23:11:26.485Z,69.65
2019-03-09T23:13:52.680Z,69.65
2019-03-09T23:16:18.781Z,69.45
2019-03-09T23:18:45.058Z,69.97
2019-03-09T23:21:11.269Z,71.17
2019-03-09T23:23:37.223Z,70.89
2019-03-09T23:26:03.270Z,71.44
2019-03-09T23:29:04.670Z,73.05
2019-03-09T23:31:30.902Z,72.78
2019-03-09T23:33:56.834Z,71.82
2019-03-09T23:36:22.975Z,71.87
2019-03-09T23:38:49.140Z,71.72
2019-03-09T23:41:15.315Z,72.44
2019-03-09T23:43:41.287Z,72.28
2019-03-09T23:46:07.412Z,72.27
2019-03-09T23:48:33.628Z,72.42
2019-03-09T23:50:59.738Z,72.62
2019-03-09T23:53:27.051Z,72.65
2019-03-09T23:55:53.202Z,73.24
2019-03-09T23:58:19.273Z,73.38
